sensor_id;sensor_type;location;lat;lon;timestamp;P1;durP1;ratioP1;P2;durP2;ratioP2
12556;SDS011;6344;49.932;8.308;2023-04-25T00:02:08;7.77;;;7.07;;
12556;SDS011;6344;49.932;8.308;2023-04-25T00:04:35;8.70;;;8.00;;
12556;SDS011;6344;49.932;8.308;2023-04-25T00:07:04;9.43;;;8.53;;
12556;SDS011;6344;49.932;8.308;2023-04-25T00:09:31;9.50;;;8.70;;
12556;SDS011;6344;49.932;8.308;2023-04-25T00:11:58;7.37;;;6.67;;
12556;SDS011;6344;49.932;8.308;2023-04-25T00:14:26;8.57;;;6.90;;
12556;SDS011;6344;49.932;8.308;2023-04-25T00:16:53;10.07;;;9.00;;
12556;SDS011;6344;49.932;8.308;2023-04-25T00:19:20;10.20;;;9.20;;
12556;SDS011;6344;49.932;8.308;2023-04-25T00:21:47;9.07;;;8.17;;
12556;SDS011;6344;49.932;8.308;2023-04-25T00:24:15;10.13;;;9.23;;
12556;SDS011;6344;49.932;8.308;2023-04-25T00:26:42;9.87;;;9.00;;
12556;SDS011;6344;49.932;8.308;2023-04-25T00:29:08;9.30;;;8.23;;
12556;SDS011;6344;49.932;8.308;2023-04-25T00:31:35;9.57;;;8.77;;
12556;SDS011;6344;49.932;8.308;2023-04-25T00:34:01;9.70;;;8.60;;
12556;SDS011;6344;49.932;8.308;2023-04-25T00:36:28;10.63;;;9.53;;
12556;SDS011;6344;49.932;8.308;2023-04-25T00:38:55;10.37;;;9.23;;
12556;SDS011;6344;49.932;8.308;2023-04-25T00:41:23;9.90;;;8.10;;
12556;SDS011;6344;49.932;8.308;2023-04-25T00:43:51;10.73;;;9.00;;
12556;SDS011;6344;49.932;8.308;2023-04-25T00:46:20;7.80;;;7.00;;
12556;SDS011;6344;49.932;8.308;2023-04-25T00:48:47;9.70;;;8.80;;
12556;SDS011;6344;49.932;8.308;2023-04-25T00:51:15;11.83;;;10.63;;
12556;SDS011;6344;49.932;8.308;2023-04-25T00:53:44;10.80;;;9.87;;
12556;SDS011;6344;49.932;8.308;2023-04-25T00:56:11;9.80;;;8.90;;
12556;SDS011;6344;49.932;8.308;2023-04-25T00:58:39;11.80;;;10.60;;
12556;SDS011;6344;49.932;8.308;2023-04-25T01:01:07;8.90;;;8.10;;
12556;SDS011;6344;49.932;8.308;2023-04-25T01:03:34;10.23;;;9.27;;
12556;SDS011;6344;49.932;8.308;2023-04-25T01:06:05;11.57;;;9.50;;
12556;SDS011;6344;49.932;8.308;2023-04-25T01:08:33;9.90;;;9.00;;
12556;SDS011;6344;49.932;8.308;2023-04-25T01:11:00;9.87;;;8.97;;
12556;SDS011;6344;49.932;8.308;2023-04-25T01:13:27;10.40;;;9.50;;
12556;SDS011;6344;49.932;8.308;2023-04-25T01:15:55;10.47;;;9.57;;
12556;SDS011;6344;49.932;8.308;2023-04-25T01:18:22;10.27;;;9.33;;
12556;SDS011;6344;49.932;8.308;2023-04-25T01:20:49;9.97;;;8.97;;
12556;SDS011;6344;49.932;8.308;2023-04-25T01:23:19;10.10;;;9.20;;
12556;SDS011;6344;49.932;8.308;2023-04-25T01:25:46;11.40;;;10.30;;
12556;SDS011;6344;49.932;8.308;2023-04-25T01:28:13;11.03;;;10.03;;
12556;SDS011;6344;49.932;8.308;2023-04-25T01:30:41;10.83;;;9.80;;
12556;SDS011;6344;49.932;8.308;2023-04-25T01:33:08;11.43;;;10.10;;
12556;SDS011;6344;49.932;8.308;2023-04-25T01:35:36;11.30;;;10.30;;
12556;SDS011;6344;49.932;8.308;2023-04-25T01:38:02;10.47;;;9.57;;
12556;SDS011;6344;49.932;8.308;2023-04-25T01:40:30;11.20;;;10.20;;
12556;SDS011;6344;49.932;8.308;2023-04-25T01:42:59;12.13;;;10.33;;
12556;SDS011;6344;49.932;8.308;2023-04-25T01:45:26;10.33;;;9.33;;
12556;SDS011;6344;49.932;8.308;2023-04-25T01:47:52;11.80;;;10.70;;
12556;SDS011;6344;49.932;8.308;2023-04-25T01:50:19;11.67;;;10.47;;
12556;SDS011;6344;49.932;8.308;2023-04-25T01:52:46;11.47;;;10.47;;
12556;SDS011;6344;49.932;8.308;2023-04-25T01:55:12;12.57;;;11.37;;
12556;SDS011;6344;49.932;8.308;2023-04-25T01:57:40;11.67;;;10.50;;
12556;SDS011;6344;49.932;8.308;2023-04-25T02:00:07;12.07;;;10.97;;
12556;SDS011;6344;49.932;8.308;2023-04-25T02:02:35;11.33;;;10.33;;
12556;SDS011;6344;49.932;8.308;2023-04-25T02:05:02;11.30;;;9.90;;
12556;SDS011;6344;49.932;8.308;2023-04-25T02:07:29;10.93;;;9.93;;
12556;SDS011;6344;49.932;8.308;2023-04-25T02:09:55;11.80;;;10.40;;
12556;SDS011;6344;49.932;8.308;2023-04-25T02:12:22;12.27;;;11.07;;
12556;SDS011;6344;49.932;8.308;2023-04-25T02:14:50;10.93;;;9.93;;
12556;SDS011;6344;49.932;8.308;2023-04-25T02:17:17;11.23;;;10.33;;
12556;SDS011;6344;49.932;8.308;2023-04-25T02:19:44;12.20;;;11.03;;
12556;SDS011;6344;49.932;8.308;2023-04-25T02:22:10;12.20;;;11.00;;
12556;SDS011;6344;49.932;8.308;2023-04-25T02:24:38;11.90;;;10.60;;
12556;SDS011;6344;49.932;8.308;2023-04-25T02:27:05;12.70;;;11.57;;
12556;SDS011;6344;49.932;8.308;2023-04-25T02:29:32;13.20;;;10.93;;
12556;SDS011;6344;49.932;8.308;2023-04-25T02:32:00;12.10;;;10.90;;
12556;SDS011;6344;49.932;8.308;2023-04-25T02:34:27;11.73;;;10.63;;
12556;SDS011;6344;49.932;8.308;2023-04-25T02:36:54;10.53;;;9.43;;
12556;SDS011;6344;49.932;8.308;2023-04-25T02:39:20;11.07;;;9.93;;
12556;SDS011;6344;49.932;8.308;2023-04-25T02:41:50;12.30;;;11.10;;
12556;SDS011;6344;49.932;8.308;2023-04-25T02:44:16;12.30;;;11.20;;
12556;SDS011;6344;49.932;8.308;2023-04-25T02:46:43;12.13;;;10.90;;
12556;SDS011;6344;49.932;8.308;2023-04-25T02:49:11;12.97;;;11.67;;
12556;SDS011;6344;49.932;8.308;2023-04-25T02:51:37;13.77;;;12.37;;
12556;SDS011;6344;49.932;8.308;2023-04-25T02:54:04;13.17;;;11.77;;
12556;SDS011;6344;49.932;8.308;2023-04-25T02:56:31;12.17;;;11.00;;
12556;SDS011;6344;49.932;8.308;2023-04-25T02:58:58;13.57;;;12.17;;
12556;SDS011;6344;49.932;8.308;2023-04-25T03:01:25;13.33;;;12.13;;
12556;SDS011;6344;49.932;8.308;2023-04-25T03:03:52;12.43;;;11.23;;
12556;SDS011;6344;49.932;8.308;2023-04-25T03:06:20;13.77;;;12.40;;
12556;SDS011;6344;49.932;8.308;2023-04-25T03:08:46;13.70;;;12.30;;
12556;SDS011;6344;49.932;8.308;2023-04-25T03:11:13;14.33;;;11.53;;
12556;SDS011;6344;49.932;8.308;2023-04-25T03:13:40;13.60;;;12.30;;
12556;SDS011;6344;49.932;8.308;2023-04-25T03:16:06;13.00;;;11.70;;
12556;SDS011;6344;49.932;8.308;2023-04-25T03:18:33;13.13;;;11.90;;
12556;SDS011;6344;49.932;8.308;2023-04-25T03:21:00;13.07;;;11.87;;
12556;SDS011;6344;49.932;8.308;2023-04-25T03:23:28;15.17;;;13.47;;
12556;SDS011;6344;49.932;8.308;2023-04-25T03:25:55;14.20;;;12.70;;
12556;SDS011;6344;49.932;8.308;2023-04-25T03:28:22;13.03;;;11.80;;
12556;SDS011;6344;49.932;8.308;2023-04-25T03:30:48;13.53;;;12.20;;
12556;SDS011;6344;49.932;8.308;2023-04-25T03:33:15;12.47;;;11.30;;
12556;SDS011;6344;49.932;8.308;2023-04-25T03:35:41;13.30;;;11.90;;
12556;SDS011;6344;49.932;8.308;2023-04-25T03:38:08;18.07;;;12.80;;
12556;SDS011;6344;49.932;8.308;2023-04-25T03:40:36;15.53;;;13.83;;
12556;SDS011;6344;49.932;8.308;2023-04-25T03:43:03;14.57;;;13.23;;
12556;SDS011;6344;49.932;8.308;2023-04-25T03:45:30;13.23;;;11.57;;
12556;SDS011;6344;49.932;8.308;2023-04-25T03:47:57;12.87;;;11.57;;
12556;SDS011;6344;49.932;8.308;2023-04-25T03:50:23;13.57;;;12.20;;
12556;SDS011;6344;49.932;8.308;2023-04-25T03:52:50;14.17;;;12.73;;
12556;SDS011;6344;49.932;8.308;2023-04-25T03:55:17;13.63;;;12.20;;
12556;SDS011;6344;49.932;8.308;2023-04-25T03:57:45;15.20;;;12.63;;
12556;SDS011;6344;49.932;8.308;2023-04-25T04:00:12;15.73;;;14.13;;
12556;SDS011;6344;49.932;8.308;2023-04-25T04:02:39;15.67;;;13.40;;
12556;SDS011;6344;49.932;8.308;2023-04-25T04:05:06;14.53;;;13.13;;
12556;SDS011;6344;49.932;8.308;2023-04-25T04:07:34;16.50;;;14.80;;
12556;SDS011;6344;49.932;8.308;2023-04-25T04:10:05;16.17;;;14.47;;
12556;SDS011;6344;49.932;8.308;2023-04-25T04:12:32;18.40;;;16.47;;
12556;SDS011;6344;49.932;8.308;2023-04-25T04:15:00;17.90;;;14.40;;
12556;SDS011;6344;49.932;8.308;2023-04-25T04:17:28;20.93;;;17.23;;
12556;SDS011;6344;49.932;8.308;2023-04-25T04:19:54;16.17;;;14.47;;
12556;SDS011;6344;49.932;8.308;2023-04-25T04:22:21;18.43;;;12.63;;
12556;SDS011;6344;49.932;8.308;2023-04-25T04:24:48;19.43;;;14.10;;
12556;SDS011;6344;49.932;8.308;2023-04-25T04:27:15;26.93;;;15.97;;
12556;SDS011;6344;49.932;8.308;2023-04-25T04:29:43;14.27;;;12.43;;
12556;SDS011;6344;49.932;8.308;2023-04-25T04:32:11;14.60;;;12.03;;
12556;SDS011;6344;49.932;8.308;2023-04-25T04:34:38;19.33;;;14.77;;
12556;SDS011;6344;49.932;8.308;2023-04-25T04:37:06;18.13;;;15.47;;
12556;SDS011;6344;49.932;8.308;2023-04-25T04:39:32;17.50;;;14.13;;
12556;SDS011;6344;49.932;8.308;2023-04-25T04:41:59;19.10;;;14.07;;
12556;SDS011;6344;49.932;8.308;2023-04-25T04:44:26;10.57;;;8.57;;
12556;SDS011;6344;49.932;8.308;2023-04-25T04:46:53;14.10;;;11.33;;
12556;SDS011;6344;49.932;8.308;2023-04-25T04:49:21;14.43;;;12.93;;
12556;SDS011;6344;49.932;8.308;2023-04-25T04:51:48;17.43;;;14.10;;
12556;SDS011;6344;49.932;8.308;2023-04-25T04:54:14;14.67;;;11.17;;
12556;SDS011;6344;49.932;8.308;2023-04-25T04:56:41;11.60;;;10.40;;
12556;SDS011;6344;49.932;8.308;2023-04-25T04:59:08;6.87;;;6.13;;
12556;SDS011;6344;49.932;8.308;2023-04-25T05:01:36;12.70;;;7.70;;
12556;SDS011;6344;49.932;8.308;2023-04-25T05:04:03;10.57;;;7.07;;
12556;SDS011;6344;49.932;8.308;2023-04-25T05:06:31;16.60;;;10.50;;
12556;SDS011;6344;49.932;8.308;2023-04-25T05:08:58;11.23;;;8.30;;
12556;SDS011;6344;49.932;8.308;2023-04-25T05:11:24;14.10;;;11.40;;
12556;SDS011;6344;49.932;8.308;2023-04-25T05:13:51;11.23;;;8.70;;
12556;SDS011;6344;49.932;8.308;2023-04-25T05:16:18;13.17;;;9.73;;
12556;SDS011;6344;49.932;8.308;2023-04-25T05:18:45;20.07;;;11.17;;
12556;SDS011;6344;49.932;8.308;2023-04-25T05:21:12;8.17;;;6.73;;
12556;SDS011;6344;49.932;8.308;2023-04-25T05:23:40;14.07;;;10.30;;
12556;SDS011;6344;49.932;8.308;2023-04-25T05:26:07;11.70;;;9.50;;
12556;SDS011;6344;49.932;8.308;2023-04-25T05:28:38;13.33;;;8.57;;
12556;SDS011;6344;49.932;8.308;2023-04-25T05:31:05;10.97;;;7.67;;
12556;SDS011;6344;49.932;8.308;2023-04-25T05:33:32;12.00;;;8.43;;
12556;SDS011;6344;49.932;8.308;2023-04-25T05:35:58;8.80;;;7.97;;
12556;SDS011;6344;49.932;8.308;2023-04-25T05:38:25;20.00;;;9.37;;
12556;SDS011;6344;49.932;8.308;2023-04-25T05:40:53;6.73;;;5.17;;
12556;SDS011;6344;49.932;8.308;2023-04-25T05:43:20;8.03;;;5.63;;
12556;SDS011;6344;49.932;8.308;2023-04-25T05:45:47;9.03;;;8.10;;
12556;SDS011;6344;49.932;8.308;2023-04-25T05:48:14;13.67;;;9.60;;
12556;SDS011;6344;49.932;8.308;2023-04-25T05:50:40;12.93;;;8.50;;
12556;SDS011;6344;49.932;8.308;2023-04-25T05:53:07;13.47;;;9.33;;
12556;SDS011;6344;49.932;8.308;2023-04-25T05:55:34;15.20;;;9.30;;
12556;SDS011;6344;49.932;8.308;2023-04-25T05:58:02;13.30;;;9.80;;
12556;SDS011;6344;49.932;8.308;2023-04-25T06:00:31;16.70;;;9.47;;
12556;SDS011;6344;49.932;8.308;2023-04-25T06:02:57;11.87;;;6.77;;
12556;SDS011;6344;49.932;8.308;2023-04-25T06:05:24;11.10;;;9.20;;
12556;SDS011;6344;49.932;8.308;2023-04-25T06:07:51;12.23;;;9.80;;
12556;SDS011;6344;49.932;8.308;2023-04-25T06:10:17;13.47;;;9.90;;
12556;SDS011;6344;49.932;8.308;2023-04-25T06:12:44;12.23;;;7.53;;
12556;SDS011;6344;49.932;8.308;2023-04-25T06:15:12;12.10;;;8.07;;
12556;SDS011;6344;49.932;8.308;2023-04-25T06:17:39;16.43;;;9.53;;
12556;SDS011;6344;49.932;8.308;2023-04-25T06:20:06;12.50;;;9.23;;
12556;SDS011;6344;49.932;8.308;2023-04-25T06:22:34;15.33;;;10.40;;
12556;SDS011;6344;49.932;8.308;2023-04-25T06:25:00;17.07;;;9.80;;
12556;SDS011;6344;49.932;8.308;2023-04-25T06:27:29;13.87;;;9.40;;
12556;SDS011;6344;49.932;8.308;2023-04-25T06:29:55;14.47;;;10.37;;
12556;SDS011;6344;49.932;8.308;2023-04-25T06:32:24;14.40;;;10.13;;
12556;SDS011;6344;49.932;8.308;2023-04-25T06:34:52;9.53;;;8.63;;
12556;SDS011;6344;49.932;8.308;2023-04-25T06:37:19;9.73;;;8.43;;
12556;SDS011;6344;49.932;8.308;2023-04-25T06:39:46;12.00;;;8.17;;
12556;SDS011;6344;49.932;8.308;2023-04-25T06:42:12;13.10;;;8.13;;
12556;SDS011;6344;49.932;8.308;2023-04-25T06:44:39;15.57;;;10.67;;
12556;SDS011;6344;49.932;8.308;2023-04-25T06:47:05;13.43;;;8.80;;
12556;SDS011;6344;49.932;8.308;2023-04-25T06:49:33;13.03;;;8.03;;
12556;SDS011;6344;49.932;8.308;2023-04-25T06:52:00;10.27;;;6.67;;
12556;SDS011;6344;49.932;8.308;2023-04-25T06:54:27;8.90;;;7.13;;
12556;SDS011;6344;49.932;8.308;2023-04-25T06:56:54;8.13;;;5.80;;
12556;SDS011;6344;49.932;8.308;2023-04-25T06:59:22;9.70;;;8.70;;
12556;SDS011;6344;49.932;8.308;2023-04-25T07:01:48;8.20;;;7.50;;
12556;SDS011;6344;49.932;8.308;2023-04-25T07:04:15;9.40;;;7.67;;
12556;SDS011;6344;49.932;8.308;2023-04-25T07:06:43;9.63;;;8.00;;
12556;SDS011;6344;49.932;8.308;2023-04-25T07:09:12;9.47;;;7.03;;
12556;SDS011;6344;49.932;8.308;2023-04-25T07:11:39;8.40;;;6.60;;
12556;SDS011;6344;49.932;8.308;2023-04-25T07:14:05;12.07;;;8.03;;
12556;SDS011;6344;49.932;8.308;2023-04-25T07:16:32;10.33;;;6.97;;
12556;SDS011;6344;49.932;8.308;2023-04-25T07:18:59;8.47;;;6.93;;
12556;SDS011;6344;49.932;8.308;2023-04-25T07:21:25;7.17;;;6.43;;
12556;SDS011;6344;49.932;8.308;2023-04-25T07:23:53;7.83;;;7.03;;
12556;SDS011;6344;49.932;8.308;2023-04-25T07:26:20;7.80;;;6.10;;
12556;SDS011;6344;49.932;8.308;2023-04-25T07:28:46;7.60;;;6.90;;
12556;SDS011;6344;49.932;8.308;2023-04-25T07:31:15;11.50;;;7.80;;
12556;SDS011;6344;49.932;8.308;2023-04-25T07:33:43;8.30;;;6.80;;
12556;SDS011;6344;49.932;8.308;2023-04-25T07:36:10;9.80;;;6.90;;
12556;SDS011;6344;49.932;8.308;2023-04-25T07:38:37;9.10;;;6.40;;
12556;SDS011;6344;49.932;8.308;2023-04-25T07:41:05;6.63;;;5.93;;
12556;SDS011;6344;49.932;8.308;2023-04-25T07:43:32;14.13;;;6.90;;
12556;SDS011;6344;49.932;8.308;2023-04-25T07:45:58;4.77;;;4.23;;
12556;SDS011;6344;49.932;8.308;2023-04-25T07:48:25;5.20;;;4.80;;
12556;SDS011;6344;49.932;8.308;2023-04-25T07:50:52;10.93;;;7.10;;
12556;SDS011;6344;49.932;8.308;2023-04-25T07:53:19;12.97;;;4.40;;
12556;SDS011;6344;49.932;8.308;2023-04-25T07:55:45;10.47;;;7.30;;
12556;SDS011;6344;49.932;8.308;2023-04-25T07:58:13;11.10;;;7.80;;
12556;SDS011;6344;49.932;8.308;2023-04-25T08:00:40;8.67;;;5.83;;
12556;SDS011;6344;49.932;8.308;2023-04-25T08:03:09;6.97;;;4.90;;
12556;SDS011;6344;49.932;8.308;2023-04-25T08:05:35;10.10;;;5.43;;
12556;SDS011;6344;49.932;8.308;2023-04-25T08:08:02;9.30;;;5.80;;
12556;SDS011;6344;49.932;8.308;2023-04-25T08:10:31;3.47;;;3.17;;
12556;SDS011;6344;49.932;8.308;2023-04-25T08:12:58;9.53;;;5.30;;
12556;SDS011;6344;49.932;8.308;2023-04-25T08:15:26;4.50;;;4.10;;
12556;SDS011;6344;49.932;8.308;2023-04-25T08:17:53;5.07;;;3.50;;
12556;SDS011;6344;49.932;8.308;2023-04-25T08:20:19;3.57;;;3.10;;
12556;SDS011;6344;49.932;8.308;2023-04-25T08:22:46;4.80;;;4.10;;
12556;SDS011;6344;49.932;8.308;2023-04-25T08:25:13;2.93;;;2.53;;
12556;SDS011;6344;49.932;8.308;2023-04-25T08:27:40;3.20;;;3.00;;
12556;SDS011;6344;49.932;8.308;2023-04-25T08:30:07;5.53;;;3.10;;
12556;SDS011;6344;49.932;8.308;2023-04-25T08:32:36;3.63;;;3.30;;
12556;SDS011;6344;49.932;8.308;2023-04-25T08:35:04;5.10;;;3.37;;
12556;SDS011;6344;49.932;8.308;2023-04-25T08:37:31;2.50;;;1.70;;
12556;SDS011;6344;49.932;8.308;2023-04-25T08:39:58;5.40;;;3.50;;
12556;SDS011;6344;49.932;8.308;2023-04-25T08:42:26;2.83;;;2.50;;
12556;SDS011;6344;49.932;8.308;2023-04-25T08:44:53;4.63;;;3.20;;
12556;SDS011;6344;49.932;8.308;2023-04-25T08:47:21;4.67;;;3.17;;
12556;SDS011;6344;49.932;8.308;2023-04-25T08:49:50;2.10;;;2.00;;
12556;SDS011;6344;49.932;8.308;2023-04-25T08:52:20;7.80;;;3.50;;
12556;SDS011;6344;49.932;8.308;2023-04-25T08:54:48;3.23;;;2.93;;
12556;SDS011;6344;49.932;8.308;2023-04-25T08:57:15;4.10;;;3.70;;
12556;SDS011;6344;49.932;8.308;2023-04-25T08:59:44;5.40;;;3.57;;
12556;SDS011;6344;49.932;8.308;2023-04-25T09:02:13;4.10;;;3.70;;
12556;SDS011;6344;49.932;8.308;2023-04-25T09:04:42;3.90;;;3.47;;
12556;SDS011;6344;49.932;8.308;2023-04-25T09:07:11;2.97;;;2.50;;
12556;SDS011;6344;49.932;8.308;2023-04-25T09:09:40;5.23;;;4.07;;
12556;SDS011;6344;49.932;8.308;2023-04-25T09:12:07;2.77;;;2.50;;
12556;SDS011;6344;49.932;8.308;2023-04-25T09:14:34;4.07;;;3.47;;
12556;SDS011;6344;49.932;8.308;2023-04-25T09:17:01;4.03;;;3.63;;
12556;SDS011;6344;49.932;8.308;2023-04-25T09:19:30;5.67;;;4.07;;
12556;SDS011;6344;49.932;8.308;2023-04-25T09:21:58;5.10;;;4.23;;
12556;SDS011;6344;49.932;8.308;2023-04-25T09:24:31;4.30;;;3.97;;
12556;SDS011;6344;49.932;8.308;2023-04-25T09:26:59;3.97;;;2.93;;
12556;SDS011;6344;49.932;8.308;2023-04-25T09:29:29;4.63;;;4.23;;
12556;SDS011;6344;49.932;8.308;2023-04-25T09:32:10;4.27;;;3.90;;
12556;SDS011;6344;49.932;8.308;2023-04-25T09:34:39;3.93;;;3.20;;
12556;SDS011;6344;49.932;8.308;2023-04-25T09:37:06;6.83;;;4.33;;
12556;SDS011;6344;49.932;8.308;2023-04-25T09:39:35;5.43;;;4.93;;
12556;SDS011;6344;49.932;8.308;2023-04-25T09:42:03;5.00;;;4.07;;
12556;SDS011;6344;49.932;8.308;2023-04-25T09:44:30;5.13;;;4.40;;
12556;SDS011;6344;49.932;8.308;2023-04-25T09:46:56;5.60;;;5.10;;
12556;SDS011;6344;49.932;8.308;2023-04-25T09:49:24;8.50;;;5.10;;
12556;SDS011;6344;49.932;8.308;2023-04-25T09:51:55;5.20;;;4.77;;
12556;SDS011;6344;49.932;8.308;2023-04-25T09:54:22;3.67;;;3.33;;
12556;SDS011;6344;49.932;8.308;2023-04-25T09:56:51;5.10;;;4.70;;
12556;SDS011;6344;49.932;8.308;2023-04-25T09:59:19;8.23;;;5.10;;
12556;SDS011;6344;49.932;8.308;2023-04-25T10:01:47;7.37;;;5.43;;
12556;SDS011;6344;49.932;8.308;2023-04-25T10:04:16;4.90;;;4.50;;
12556;SDS011;6344;49.932;8.308;2023-04-25T10:06:46;5.87;;;4.90;;
12556;SDS011;6344;49.932;8.308;2023-04-25T10:09:15;5.60;;;4.90;;
12556;SDS011;6344;49.932;8.308;2023-04-25T10:11:43;5.90;;;4.83;;
12556;SDS011;6344;49.932;8.308;2023-04-25T10:14:12;7.00;;;6.30;;
12556;SDS011;6344;49.932;8.308;2023-04-25T10:16:39;6.00;;;5.40;;
12556;SDS011;6344;49.932;8.308;2023-04-25T10:19:07;6.87;;;6.17;;
12556;SDS011;6344;49.932;8.308;2023-04-25T10:21:34;6.83;;;6.23;;
12556;SDS011;6344;49.932;8.308;2023-04-25T10:24:06;9.00;;;6.60;;
12556;SDS011;6344;49.932;8.308;2023-04-25T10:26:33;9.93;;;5.90;;
12556;SDS011;6344;49.932;8.308;2023-04-25T10:29:00;8.57;;;5.20;;
12556;SDS011;6344;49.932;8.308;2023-04-25T10:31:30;5.53;;;4.90;;
12556;SDS011;6344;49.932;8.308;2023-04-25T10:33:58;4.80;;;4.50;;
12556;SDS011;6344;49.932;8.308;2023-04-25T10:36:26;9.20;;;5.03;;
12556;SDS011;6344;49.932;8.308;2023-04-25T10:38:58;4.47;;;4.17;;
12556;SDS011;6344;49.932;8.308;2023-04-25T10:41:31;6.43;;;5.83;;
12556;SDS011;6344;49.932;8.308;2023-04-25T10:44:12;7.07;;;6.47;;
12556;SDS011;6344;49.932;8.308;2023-04-25T10:46:40;6.60;;;5.87;;
12556;SDS011;6344;49.932;8.308;2023-04-25T10:49:07;6.40;;;6.00;;
12556;SDS011;6344;49.932;8.308;2023-04-25T10:51:34;7.83;;;6.70;;
12556;SDS011;6344;49.932;8.308;2023-04-25T10:54:02;6.13;;;5.63;;
12556;SDS011;6344;49.932;8.308;2023-04-25T10:56:32;7.73;;;6.70;;
12556;SDS011;6344;49.932;8.308;2023-04-25T10:59:07;8.70;;;5.73;;
12556;SDS011;6344;49.932;8.308;2023-04-25T11:01:38;5.00;;;4.50;;
12556;SDS011;6344;49.932;8.308;2023-04-25T11:04:07;6.97;;;6.37;;
12556;SDS011;6344;49.932;8.308;2023-04-25T11:06:46;8.03;;;6.47;;
12556;SDS011;6344;49.932;8.308;2023-04-25T11:09:24;7.93;;;7.13;;
12556;SDS011;6344;49.932;8.308;2023-04-25T11:11:53;10.10;;;7.20;;
12556;SDS011;6344;49.932;8.308;2023-04-25T11:14:20;8.07;;;7.13;;
12556;SDS011;6344;49.932;8.308;2023-04-25T11:16:46;6.97;;;6.37;;
12556;SDS011;6344;49.932;8.308;2023-04-25T11:19:14;7.00;;;6.50;;
12556;SDS011;6344;49.932;8.308;2023-04-25T11:21:41;7.03;;;6.37;;
12556;SDS011;6344;49.932;8.308;2023-04-25T11:24:08;7.10;;;6.50;;
12556;SDS011;6344;49.932;8.308;2023-04-25T11:26:34;21.03;;;10.27;;
12556;SDS011;6344;49.932;8.308;2023-04-25T11:29:02;11.67;;;8.07;;
12556;SDS011;6344;49.932;8.308;2023-04-25T11:31:29;7.83;;;6.87;;
12556;SDS011;6344;49.932;8.308;2023-04-25T11:33:56;7.00;;;5.97;;
12556;SDS011;6344;49.932;8.308;2023-04-25T11:36:25;9.93;;;6.33;;
12556;SDS011;6344;49.932;8.308;2023-04-25T11:38:52;7.67;;;7.00;;
12556;SDS011;6344;49.932;8.308;2023-04-25T11:41:19;7.77;;;6.97;;
12556;SDS011;6344;49.932;8.308;2023-04-25T11:43:47;6.90;;;5.50;;
12556;SDS011;6344;49.932;8.308;2023-04-25T11:46:15;6.93;;;4.80;;
12556;SDS011;6344;49.932;8.308;2023-04-25T11:48:42;5.17;;;4.67;;
12556;SDS011;6344;49.932;8.308;2023-04-25T11:51:09;6.20;;;4.17;;
12556;SDS011;6344;49.932;8.308;2023-04-25T11:53:38;8.63;;;6.50;;
12556;SDS011;6344;49.932;8.308;2023-04-25T11:56:08;7.13;;;6.33;;
12556;SDS011;6344;49.932;8.308;2023-04-25T12:01:24;9.30;;;6.60;;
12556;SDS011;6344;49.932;8.308;2023-04-25T12:03:52;8.97;;;6.67;;
12556;SDS011;6344;49.932;8.308;2023-04-25T12:06:19;10.40;;;6.17;;
12556;SDS011;6344;49.932;8.308;2023-04-25T12:09:00;19.03;;;6.80;;
12556;SDS011;6344;49.932;8.308;2023-04-25T12:11:29;10.83;;;6.20;;
12556;SDS011;6344;49.932;8.308;2023-04-25T12:14:01;6.83;;;4.70;;
12556;SDS011;6344;49.932;8.308;2023-04-25T12:16:28;11.87;;;5.93;;
12556;SDS011;6344;49.932;8.308;2023-04-25T12:18:55;5.43;;;3.60;;
12556;SDS011;6344;49.932;8.308;2023-04-25T12:21:24;7.57;;;6.50;;
12556;SDS011;6344;49.932;8.308;2023-04-25T12:23:55;6.77;;;5.40;;
12556;SDS011;6344;49.932;8.308;2023-04-25T12:26:23;15.13;;;5.63;;
12556;SDS011;6344;49.932;8.308;2023-04-25T12:28:50;3.67;;;3.37;;
12556;SDS011;6344;49.932;8.308;2023-04-25T12:31:17;6.77;;;6.10;;
12556;SDS011;6344;49.932;8.308;2023-04-25T12:33:43;5.73;;;5.10;;
12556;SDS011;6344;49.932;8.308;2023-04-25T12:36:12;8.50;;;5.80;;
12556;SDS011;6344;49.932;8.308;2023-04-25T12:38:40;7.73;;;5.23;;
12556;SDS011;6344;49.932;8.308;2023-04-25T12:41:07;6.93;;;5.77;;
12556;SDS011;6344;49.932;8.308;2023-04-25T12:43:36;7.90;;;5.77;;
12556;SDS011;6344;49.932;8.308;2023-04-25T12:46:03;5.60;;;5.20;;
12556;SDS011;6344;49.932;8.308;2023-04-25T12:48:29;9.00;;;5.93;;
12556;SDS011;6344;49.932;8.308;2023-04-25T12:50:56;6.70;;;5.30;;
12556;SDS011;6344;49.932;8.308;2023-04-25T12:53:23;7.23;;;5.27;;
12556;SDS011;6344;49.932;8.308;2023-04-25T12:55:50;7.87;;;6.37;;
12556;SDS011;6344;49.932;8.308;2023-04-25T12:58:17;4.73;;;4.33;;
12556;SDS011;6344;49.932;8.308;2023-04-25T13:00:46;8.53;;;4.90;;
12556;SDS011;6344;49.932;8.308;2023-04-25T13:03:13;6.80;;;4.97;;
12556;SDS011;6344;49.932;8.308;2023-04-25T13:05:40;6.40;;;4.50;;
12556;SDS011;6344;49.932;8.308;2023-04-25T13:08:06;6.23;;;4.67;;
12556;SDS011;6344;49.932;8.308;2023-04-25T13:10:33;5.63;;;5.10;;
12556;SDS011;6344;49.932;8.308;2023-04-25T13:13:00;5.00;;;4.30;;
12556;SDS011;6344;49.932;8.308;2023-04-25T13:15:27;4.80;;;4.40;;
12556;SDS011;6344;49.932;8.308;2023-04-25T13:17:56;4.20;;;3.70;;
12556;SDS011;6344;49.932;8.308;2023-04-25T13:20:23;6.20;;;5.37;;
12556;SDS011;6344;49.932;8.308;2023-04-25T13:22:49;8.30;;;5.87;;
12556;SDS011;6344;49.932;8.308;2023-04-25T13:25:16;9.90;;;5.63;;
12556;SDS011;6344;49.932;8.308;2023-04-25T13:27:43;6.10;;;5.50;;
12556;SDS011;6344;49.932;8.308;2023-04-25T13:30:11;7.27;;;4.87;;
12556;SDS011;6344;49.932;8.308;2023-04-25T13:32:38;5.43;;;5.03;;
12556;SDS011;6344;49.932;8.308;2023-04-25T13:35:08;6.03;;;5.37;;
12556;SDS011;6344;49.932;8.308;2023-04-25T13:37:36;5.70;;;5.20;;
12556;SDS011;6344;49.932;8.308;2023-04-25T13:40:04;6.17;;;4.40;;
12556;SDS011;6344;49.932;8.308;2023-04-25T13:42:33;5.50;;;4.70;;
12556;SDS011;6344;49.932;8.308;2023-04-25T13:45:00;4.63;;;4.17;;
12556;SDS011;6344;49.932;8.308;2023-04-25T13:47:27;4.03;;;3.63;;
12556;SDS011;6344;49.932;8.308;2023-04-25T13:49:55;8.70;;;4.70;;
12556;SDS011;6344;49.932;8.308;2023-04-25T13:52:23;4.83;;;3.53;;
12556;SDS011;6344;49.932;8.308;2023-04-25T13:54:50;4.20;;;3.73;;
12556;SDS011;6344;49.932;8.308;2023-04-25T13:57:17;5.37;;;4.07;;
12556;SDS011;6344;49.932;8.308;2023-04-25T13:59:44;9.30;;;4.20;;
12556;SDS011;6344;49.932;8.308;2023-04-25T14:02:11;4.60;;;4.20;;
12556;SDS011;6344;49.932;8.308;2023-04-25T14:04:37;5.20;;;4.53;;
12556;SDS011;6344;49.932;8.308;2023-04-25T14:07:04;5.80;;;3.97;;
12556;SDS011;6344;49.932;8.308;2023-04-25T14:09:32;5.67;;;4.17;;
12556;SDS011;6344;49.932;8.308;2023-04-25T14:11:59;5.63;;;3.63;;
12556;SDS011;6344;49.932;8.308;2023-04-25T14:14:27;4.37;;;3.97;;
12556;SDS011;6344;49.932;8.308;2023-04-25T14:16:53;4.80;;;3.93;;
12556;SDS011;6344;49.932;8.308;2023-04-25T14:19:22;4.93;;;3.83;;
12556;SDS011;6344;49.932;8.308;2023-04-25T14:21:49;4.80;;;4.27;;
12556;SDS011;6344;49.932;8.308;2023-04-25T14:24:16;4.40;;;4.00;;
12556;SDS011;6344;49.932;8.308;2023-04-25T14:26:44;3.57;;;3.27;;
12556;SDS011;6344;49.932;8.308;2023-04-25T14:29:11;7.90;;;3.83;;
12556;SDS011;6344;49.932;8.308;2023-04-25T14:31:38;6.90;;;4.23;;
12556;SDS011;6344;49.932;8.308;2023-04-25T14:34:06;4.23;;;3.60;;
12556;SDS011;6344;49.932;8.308;2023-04-25T14:36:33;4.33;;;3.40;;
12556;SDS011;6344;49.932;8.308;2023-04-25T14:39:01;3.90;;;2.97;;
12556;SDS011;6344;49.932;8.308;2023-04-25T14:41:29;4.77;;;3.90;;
12556;SDS011;6344;49.932;8.308;2023-04-25T14:43:58;7.53;;;2.87;;
12556;SDS011;6344;49.932;8.308;2023-04-25T14:46:25;7.87;;;3.83;;
12556;SDS011;6344;49.932;8.308;2023-04-25T14:48:52;4.60;;;4.17;;
12556;SDS011;6344;49.932;8.308;2023-04-25T14:51:20;4.43;;;4.03;;
12556;SDS011;6344;49.932;8.308;2023-04-25T14:53:47;8.53;;;4.57;;
12556;SDS011;6344;49.932;8.308;2023-04-25T14:56:14;4.40;;;4.10;;
12556;SDS011;6344;49.932;8.308;2023-04-25T14:58:40;6.17;;;4.17;;